sensor_id;sensor_type;location;lat;lon;timestamp;pressure;altitude;pressure_sealevel;temperature;humidity
31096;BME280;17749;51.962;8.560;2022-12-24T06:02:00;99357.91;;;8.08;100.00
31096;BME280;17749;51.962;8.560;2022-12-24T06:04:29;99356.41;;;8.03;100.00
31096;BME280;17749;51.962;8.560;2022-12-24T06:06:57;99359.19;;;8.00;100.00
31096;BME280;17749;51.962;8.560;2022-12-24T06:09:24;99359.03;;;8.03;100.00
31096;BME280;17749;51.962;8.560;2022-12-24T06:11:55;99370.47;;;8.05;100.00
31096;BME280;17749;51.962;8.560;2022-12-24T06:14:22;99378.66;;;7.99;100.00
31096;BME280;17749;51.962;8.560;2022-12-24T06:16:53;99375.22;;;7.97;100.00
31096;BME280;17749;51.962;8.560;2022-12-24T06:19:20;99377.88;;;7.97;100.00
31096;BME280;17749;51.962;8.560;2022-12-24T06:21:47;99375.09;;;8.00;100.00
31096;BME280;17749;51.962;8.560;2022-12-24T06:24:14;99377.56;;;8.04;100.00
31096;BME280;17749;51.962;8.560;2022-12-24T06:26:42;99369.66;;;8.03;100.00
31096;BME280;17749;51.962;8.560;2022-12-24T06:29:09;99370.47;;;8.05;100.00
31096;BME280;17749;51.962;8.560;2022-12-24T06:31:37;99367.81;;;8.05;100.00
31096;BME280;17749;51.962;8.560;2022-12-24T06:34:04;99380.97;;;8.06;100.00
31096;BME280;17749;51.962;8.560;2022-12-24T06:36:31;99380.06;;;8.07;100.00
31096;BME280;17749;51.962;8.560;2022-12-24T06:38:58;99381.88;;;8.07;100.00
31096;BME280;17749;51.962;8.560;2022-12-24T06:41:26;99385.28;;;8.09;100.00
31096;BME280;17749;51.962;8.560;2022-12-24T06:43:53;99395.91;;;8.09;100.00
31096;BME280;17749;51.962;8.560;2022-12-24T06:46:20;99383.44;;;8.11;100.00
31096;BME280;17749;51.962;8.560;2022-12-24T06:48:48;99381.75;;;8.10;100.00
31096;BME280;17749;51.962;8.560;2022-12-24T06:51:16;99384.25;;;8.13;100.00
31096;BME280;17749;51.962;8.560;2022-12-24T06:53:45;99393.94;;;8.14;100.00
31096;BME280;17749;51.962;8.560;2022-12-24T06:56:13;99392.09;;;8.16;100.00
31096;BME280;17749;51.962;8.560;2022-12-24T06:58:43;99388.50;;;8.17;100.00
31096;BME280;17749;51.962;8.560;2022-12-24T07:01:12;99390.38;;;8.15;100.00
31096;BME280;17749;51.962;8.560;2022-12-24T07:03:40;99393.69;;;8.20;100.00
31096;BME280;17749;51.962;8.560;2022-12-24T07:06:28;99402.31;;;8.25;100.00
31096;BME280;17749;51.962;8.560;2022-12-24T07:09:33;99400.56;;;8.24;100.00
31096;BME280;17749;51.962;8.560;2022-12-24T07:12:13;99407.63;;;8.25;100.00
31096;BME280;17749;51.962;8.560;2022-12-24T07:14:40;99412.00;;;8.26;100.00
31096;BME280;17749;51.962;8.560;2022-12-24T07:17:08;99412.81;;;8.28;100.00
31096;BME280;17749;51.962;8.560;2022-12-24T07:19:35;99420.75;;;8.28;100.00
31096;BME280;17749;51.962;8.560;2022-12-24T07:22:02;99417.16;;;8.29;100.00
31096;BME280;17749;51.962;8.560;2022-12-24T07:24:29;99423.28;;;8.31;100.00
31096;BME280;17749;51.962;8.560;2022-12-24T07:26:56;99426.72;;;8.33;100.00
31096;BME280;17749;51.962;8.560;2022-12-24T07:29:22;99428.44;;;8.34;100.00
31096;BME280;17749;51.962;8.560;2022-12-24T07:31:49;99428.31;;;8.38;100.00
31096;BME280;17749;51.962;8.560;2022-12-24T07:34:16;99424.75;;;8.39;100.00
31096;BME280;17749;51.962;8.560;2022-12-24T07:36:43;99429.97;;;8.42;100.00
31096;BME280;17749;51.962;8.560;2022-12-24T07:39:10;99440.66;;;8.39;100.00
31096;BME280;17749;51.962;8.560;2022-12-24T07:41:37;99438.91;;;8.39;100.00
31096;BME280;17749;51.962;8.560;2022-12-24T07:44:11;99448.63;;;8.39;100.00
31096;BME280;17749;51.962;8.560;2022-12-24T07:46:39;99448.59;;;8.40;100.00
31096;BME280;17749;51.962;8.560;2022-12-24T07:49:06;99446.78;;;8.41;100.00
31096;BME280;17749;51.962;8.560;2022-12-24T07:51:33;99445.78;;;8.43;100.00
31096;BME280;17749;51.962;8.560;2022-12-24T07:54:00;99451.22;;;8.40;100.00
31096;BME280;17749;51.962;8.560;2022-12-24T07:56:27;99448.59;;;8.40;100.00
31096;BME280;17749;51.962;8.560;2022-12-24T07:58:54;99455.63;;;8.41;100.00
31096;BME280;17749;51.962;8.560;2022-12-24T08:01:21;99468.59;;;8.49;100.00
31096;BME280;17749;51.962;8.560;2022-12-24T08:03:48;99472.94;;;8.50;100.00
31096;BME280;17749;51.962;8.560;2022-12-24T08:06:20;99467.78;;;8.47;100.00
31096;BME280;17749;51.962;8.560;2022-12-24T08:08:47;99473.88;;;8.49;100.00
31096;BME280;17749;51.962;8.560;2022-12-24T08:11:15;99481.78;;;8.50;100.00
31096;BME280;17749;51.962;8.560;2022-12-24T08:13:42;99480.78;;;8.53;100.00
31096;BME280;17749;51.962;8.560;2022-12-24T08:16:08;99473.63;;;8.55;100.00
31096;BME280;17749;51.962;8.560;2022-12-24T08:18:35;99475.34;;;8.56;100.00
31096;BME280;17749;51.962;8.560;2022-12-24T08:21:06;99477.09;;;8.57;100.00
31096;BME280;17749;51.962;8.560;2022-12-24T08:23:34;99480.66;;;8.56;100.00
31096;BME280;17749;51.962;8.560;2022-12-24T08:26:01;99476.28;;;8.55;100.00
31096;BME280;17749;51.962;8.560;2022-12-24T08:28:28;99480.66;;;8.56;100.00
31096;BME280;17749;51.962;8.560;2022-12-24T08:30:55;99487.56;;;8.60;100.00
31096;BME280;17749;51.962;8.560;2022-12-24T08:33:23;99498.06;;;8.63;100.00
31096;BME280;17749;51.962;8.560;2022-12-24T08:35:53;99502.41;;;8.64;100.00
31096;BME280;17749;51.962;8.560;2022-12-24T08:38:20;99517.44;;;8.65;100.00
31096;BME280;17749;51.962;8.560;2022-12-24T08:40:48;99505.81;;;8.68;100.00
31096;BME280;17749;51.962;8.560;2022-12-24T08:43:16;99512.13;;;8.65;100.00
31096;BME280;17749;51.962;8.560;2022-12-24T08:45:44;99512.72;;;8.72;100.00
31096;BME280;17749;51.962;8.560;2022-12-24T08:48:12;99518.91;;;8.72;100.00
31096;BME280;17749;51.962;8.560;2022-12-24T08:50:40;99517.03;;;8.74;100.00
31096;BME280;17749;51.962;8.560;2022-12-24T08:53:08;99506.38;;;8.76;100.00
31096;BME280;17749;51.962;8.560;2022-12-24T08:55:36;99508.06;;;8.77;100.00
31096;BME280;17749;51.962;8.560;2022-12-24T08:58:03;99517.78;;;8.78;100.00
31096;BME280;17749;51.962;8.560;2022-12-24T09:00:30;99522.09;;;8.81;100.00
31096;BME280;17749;51.962;8.560;2022-12-24T09:02:57;99518.47;;;8.83;100.00
31096;BME280;17749;51.962;8.560;2022-12-24T09:05:24;99525.53;;;8.83;100.00
31096;BME280;17749;51.962;8.560;2022-12-24T09:07:51;99536.06;;;8.86;100.00
31096;BME280;17749;51.962;8.560;2022-12-24T09:10:19;99533.41;;;8.86;100.00
31096;BME280;17749;51.962;8.560;2022-12-24T09:12:46;99546.53;;;8.89;100.00
31096;BME280;17749;51.962;8.560;2022-12-24T09:15:13;99548.06;;;8.94;100.00
31096;BME280;17749;51.962;8.560;2022-12-24T09:17:41;99547.00;;;8.98;100.00
31096;BME280;17749;51.962;8.560;2022-12-24T09:20:08;99556.53;;;9.04;100.00
31096;BME280;17749;51.962;8.560;2022-12-24T09:22:38;99566.88;;;9.10;100.00
31096;BME280;17749;51.962;8.560;2022-12-24T09:25:05;99568.47;;;9.14;100.00
31096;BME280;17749;51.962;8.560;2022-12-24T09:27:33;99571.00;;;9.17;100.00
31096;BME280;17749;51.962;8.560;2022-12-24T09:30:00;99573.78;;;9.14;100.00
31096;BME280;17749;51.962;8.560;2022-12-24T09:32:27;99575.66;;;9.12;100.00
31096;BME280;17749;51.962;8.560;2022-12-24T09:34:54;99584.53;;;9.11;100.00
31096;BME280;17749;51.962;8.560;2022-12-24T09:37:20;99589.72;;;9.14;100.00
31096;BME280;17749;51.962;8.560;2022-12-24T09:39:47;99602.22;;;9.12;100.00
31096;BME280;17749;51.962;8.560;2022-12-24T09:42:50;99596.75;;;9.15;100.00
31096;BME280;17749;51.962;8.560;2022-12-24T09:45:32;99616.16;;;9.17;100.00
31096;BME280;17749;51.962;8.560;2022-12-24T09:48:13;99618.06;;;9.14;100.00
31096;BME280;17749;51.962;8.560;2022-12-24T09:50:56;99617.03;;;9.18;100.00
31096;BME280;17749;51.962;8.560;2022-12-24T09:53:33;99612.56;;;9.18;100.00
31096;BME280;17749;51.962;8.560;2022-12-24T09:56:10;99627.66;;;9.18;100.00
31096;BME280;17749;51.962;8.560;2022-12-24T09:58:42;99616.03;;;9.20;100.00
31096;BME280;17749;51.962;8.560;2022-12-24T10:01:13;99628.25;;;9.25;100.00
31096;BME280;17749;51.962;8.560;2022-12-24T10:03:41;99630.84;;;9.26;100.00
31096;BME280;17749;51.962;8.560;2022-12-24T10:06:13;99628.25;;;9.25;100.00
31096;BME280;17749;51.962;8.560;2022-12-24T10:19:51;99633.50;;;9.26;100.00
31096;BME280;17749;51.962;8.560;2022-12-24T10:27:50;99648.78;;;9.21;100.00
31096;BME280;17749;51.962;8.560;2022-12-24T10:30:21;99647.78;;;9.24;100.00
31096;BME280;17749;51.962;8.560;2022-12-24T10:32:50;99656.38;;;9.30;100.00
31096;BME280;17749;51.962;8.560;2022-12-24T10:35:19;99660.59;;;9.34;100.00
31096;BME280;17749;51.962;8.560;2022-12-24T10:37:48;99663.34;;;9.33;100.00
31096;BME280;17749;51.962;8.560;2022-12-24T10:42:49;99655.38;;;9.33;100.00
31096;BME280;17749;51.962;8.560;2022-12-24T10:45:20;99655.09;;;9.39;100.00
31096;BME280;17749;51.962;8.560;2022-12-24T10:47:51;99664.78;;;9.40;100.00
31096;BME280;17749;51.962;8.560;2022-12-24T10:50:37;99661.09;;;9.44;100.00
31096;BME280;17749;51.962;8.560;2022-12-24T10:53:17;99666.53;;;9.41;100.00
31096;BME280;17749;51.962;8.560;2022-12-24T10:55:47;99666.69;;;9.38;100.00
31096;BME280;17749;51.962;8.560;2022-12-24T10:58:17;99663.75;;;9.44;100.00
31096;BME280;17749;51.962;8.560;2022-12-24T11:00:50;99665.66;;;9.40;100.00
31096;BME280;17749;51.962;8.560;2022-12-24T11:05:44;99664.78;;;9.40;100.00
31096;BME280;17749;51.962;8.560;2022-12-24T11:10:44;99670.78;;;9.45;100.00
31096;BME280;17749;51.962;8.560;2022-12-24T11:13:26;99664.56;;;9.46;100.00
31096;BME280;17749;51.962;8.560;2022-12-24T11:16:31;99678.50;;;9.51;100.00
31096;BME280;17749;51.962;8.560;2022-12-24T11:19:05;99687.16;;;9.56;100.00
31096;BME280;17749;51.962;8.560;2022-12-24T11:21:41;99673.06;;;9.54;100.00
31096;BME280;17749;51.962;8.560;2022-12-24T11:26:40;99677.31;;;9.58;100.00
31096;BME280;17749;51.962;8.560;2022-12-24T11:31:38;99671.00;;;9.61;100.00
31096;BME280;17749;51.962;8.560;2022-12-24T11:34:29;99667.63;;;9.57;100.00
31096;BME280;17749;51.962;8.560;2022-12-24T11:37:15;99661.16;;;9.63;100.00
31096;BME280;17749;51.962;8.560;2022-12-24T11:39:46;99665.47;;;9.65;100.00
31096;BME280;17749;51.962;8.560;2022-12-24T11:42:35;99663.75;;;9.64;100.00
31096;BME280;17749;51.962;8.560;2022-12-24T11:45:13;99668.94;;;9.68;100.00
31096;BME280;17749;51.962;8.560;2022-12-24T11:47:43;99674.19;;;9.69;100.00
31096;BME280;17749;51.962;8.560;2022-12-24T11:50:29;99674.13;;;9.71;100.00
31096;BME280;17749;51.962;8.560;2022-12-24T11:57:04;99665.22;;;9.72;100.00
31096;BME280;17749;51.962;8.560;2022-12-24T11:59:21;99672.13;;;9.76;100.00
31096;BME280;17749;51.962;8.560;2022-12-24T12:04:46;99678.16;;;9.79;100.00
31096;BME280;17749;51.962;8.560;2022-12-24T12:07:24;99681.72;;;9.80;100.00
31096;BME280;17749;51.962;8.560;2022-12-24T12:09:58;99679.97;;;9.79;100.00
31096;BME280;17749;51.962;8.560;2022-12-24T12:12:32;99679.06;;;9.80;100.00
31096;BME280;17749;51.962;8.560;2022-12-24T12:15:16;99677.44;;;9.76;100.00
31096;BME280;17749;51.962;8.560;2022-12-24T12:17:51;99675.72;;;9.75;100.00
31096;BME280;17749;51.962;8.560;2022-12-24T12:20:27;99679.16;;;9.77;100.00
31096;BME280;17749;51.962;8.560;2022-12-24T12:23:22;99686.22;;;9.78;100.00
31096;BME280;17749;51.962;8.560;2022-12-24T12:25:58;99689.69;;;9.80;100.00
31096;BME280;17749;51.962;8.560;2022-12-24T12:28:31;99687.81;;;9.82;100.00
31096;BME280;17749;51.962;8.560;2022-12-24T12:31:04;99686.09;;;9.81;100.00
31096;BME280;17749;51.962;8.560;2022-12-24T12:33:46;99692.13;;;9.84;100.00
31096;BME280;17749;51.962;8.560;2022-12-24T12:36:18;99701.78;;;9.87;100.00
31096;BME280;17749;51.962;8.560;2022-12-24T12:38:46;99700.06;;;9.86;100.00
31096;BME280;17749;51.962;8.560;2022-12-24T12:41:30;99699.19;;;9.85;100.00
31096;BME280;17749;51.962;8.560;2022-12-24T12:44:09;99704.44;;;9.87;100.00
31096;BME280;17749;51.962;8.560;2022-12-24T12:47:00;99699.06;;;9.88;100.00
31096;BME280;17749;51.962;8.560;2022-12-24T12:52:56;99703.50;;;9.88;100.00
31096;BME280;17749;51.962;8.560;2022-12-24T12:55:38;99706.94;;;9.90;100.00
31096;BME280;17749;51.962;8.560;2022-12-24T12:58:16;99705.75;;;9.97;100.00
31096;BME280;17749;51.962;8.560;2022-12-24T13:00:46;99717.34;;;9.96;100.00
31096;BME280;17749;51.962;8.560;2022-12-24T13:17:17;99729.69;;;9.97;100.00
31096;BME280;17749;51.962;8.560;2022-12-24T13:22:24;99737.28;;;9.86;100.00
31096;BME280;17749;51.962;8.560;2022-12-24T13:24:53;99734.50;;;9.89;100.00
31096;BME280;17749;51.962;8.560;2022-12-24T13:27:26;99738.16;;;9.86;100.00
31096;BME280;17749;51.962;8.560;2022-12-24T13:30:02;99739.75;;;9.91;100.00
31096;BME280;17749;51.962;8.560;2022-12-24T13:32:45;99738.88;;;9.90;100.00
31096;BME280;17749;51.962;8.560;2022-12-24T13:35:33;99737.16;;;9.89;100.00
31096;BME280;17749;51.962;8.560;2022-12-24T13:40:53;99739.81;;;9.89;100.00
31096;BME280;17749;51.962;8.560;2022-12-24T13:43:20;99749.63;;;9.87;100.00
31096;BME280;17749;51.962;8.560;2022-12-24T13:45:49;99747.78;;;9.89;100.00
31096;BME280;17749;51.962;8.560;2022-12-24T13:48:21;99760.13;;;9.90;100.00
31096;BME280;17749;51.962;8.560;2022-12-24T13:50:53;99761.09;;;9.89;100.00
31096;BME280;17749;51.962;8.560;2022-12-24T13:53:26;99763.06;;;9.84;100.00
31096;BME280;17749;51.962;8.560;2022-12-24T13:55:58;99772.00;;;9.83;100.00
31096;BME280;17749;51.962;8.560;2022-12-24T13:58:28;99780.88;;;9.82;100.00
31096;BME280;17749;51.962;8.560;2022-12-24T14:01:04;99777.50;;;9.78;100.00
31096;BME280;17749;51.962;8.560;2022-12-24T14:03:42;99789.94;;;9.78;100.00
31096;BME280;17749;51.962;8.560;2022-12-24T14:06:25;99790.63;;;9.83;100.00
31096;BME280;17749;51.962;8.560;2022-12-24T14:09:16;99796.13;;;9.78;100.00
31096;BME280;17749;51.962;8.560;2022-12-24T14:14:38;99792.72;;;9.75;100.00
31096;BME280;17749;51.962;8.560;2022-12-24T14:19:57;99798.16;;;9.72;100.00
31096;BME280;17749;51.962;8.560;2022-12-24T14:24:57;99792.84;;;9.72;100.00
31096;BME280;17749;51.962;8.560;2022-12-24T14:30:17;99807.34;;;9.64;100.00
31096;BME280;17749;51.962;8.560;2022-12-24T14:32:46;99815.47;;;9.60;100.00
31096;BME280;17749;51.962;8.560;2022-12-24T14:35:19;99816.72;;;9.51;100.00
31096;BME280;17749;51.962;8.560;2022-12-24T14:37:50;99834.53;;;9.49;100.00
31096;BME280;17749;51.962;8.560;2022-12-24T14:40:21;99839.97;;;9.46;100.00
31096;BME280;17749;51.962;8.560;2022-12-24T14:43:03;99824.81;;;9.48;100.00
31096;BME280;17749;51.962;8.560;2022-12-24T14:45:42;99822.16;;;9.48;100.00
31096;BME280;17749;51.962;8.560;2022-12-24T14:48:38;99840.03;;;9.44;100.00
31096;BME280;17749;51.962;8.560;2022-12-24T14:56:31;99848.16;;;9.40;100.00
31096;BME280;17749;51.962;8.560;2022-12-24T14:58:58;99853.44;;;9.41;100.00
31096;BME280;17749;51.962;8.560;2022-12-24T15:01:31;99854.53;;;9.36;100.00
31096;BME280;17749;51.962;8.560;2022-12-24T15:06:28;99868.88;;;9.32;100.00
31096;BME280;17749;51.962;8.560;2022-12-24T15:08:57;99865.41;;;9.30;100.00
31096;BME280;17749;51.962;8.560;2022-12-24T15:11:24;99868.19;;;9.27;100.00
31096;BME280;17749;51.962;8.560;2022-12-24T15:13:54;99871.94;;;9.21;100.00
31096;BME280;17749;51.962;8.560;2022-12-24T15:16:34;99876.81;;;9.10;100.00
31096;BME280;17749;51.962;8.560;2022-12-24T15:19:21;99880.31;;;9.10;100.00
31096;BME280;17749;51.962;8.560;2022-12-24T15:21:49;99879.63;;;9.05;100.00
31096;BME280;17749;51.962;8.560;2022-12-24T15:24:28;99885.75;;;9.07;100.00
31096;BME280;17749;51.962;8.560;2022-12-24T15:26:59;99887.84;;;8.99;100.00
31096;BME280;17749;51.962;8.560;2022-12-24T15:29:31;99882.59;;;8.96;100.00
31096;BME280;17749;51.962;8.560;2022-12-24T15:32:00;99889.94;;;8.89;100.00
31096;BME280;17749;51.962;8.560;2022-12-24T15:34:35;99887.41;;;8.86;100.00
31096;BME280;17749;51.962;8.560;2022-12-24T15:37:29;99896.28;;;8.85;100.00
31096;BME280;17749;51.962;8.560;2022-12-24T15:42:59;99908.22;;;8.73;100.00
31096;BME280;17749;51.962;8.560;2022-12-24T15:45:28;99912.00;;;8.66;100.00
31096;BME280;17749;51.962;8.560;2022-12-24T15:48:00;99907.66;;;8.64;100.00
31096;BME280;17749;51.962;8.560;2022-12-24T15:50:34;99912.28;;;8.59;100.00
31096;BME280;17749;51.962;8.560;2022-12-24T15:53:10;99920.50;;;8.51;100.00
31096;BME280;17749;51.962;8.560;2022-12-24T15:58:38;99928.78;;;8.42;100.00
31096;BME280;17749;51.962;8.560;2022-12-24T16:01:26;99936.03;;;8.35;100.00
31096;BME280;17749;51.962;8.560;2022-12-24T16:03:56;99922.03;;;8.31;100.00
31096;BME280;17749;51.962;8.560;2022-12-24T16:06:24;99932.84;;;8.25;100.00
31096;BME280;17749;51.962;8.560;2022-12-24T16:08:51;99934.78;;;8.20;100.00
31096;BME280;17749;51.962;8.560;2022-12-24T16:11:22;99941.94;;;8.18;100.00
31096;BME280;17749;51.962;8.560;2022-12-24T16:16:19;99945.69;;;8.11;100.00
31096;BME280;17749;51.962;8.560;2022-12-24T16:18:52;99944.16;;;8.04;100.00
31096;BME280;17749;51.962;8.560;2022-12-24T16:21:27;99947.00;;;7.98;100.00
31096;BME280;17749;51.962;8.560;2022-12-24T16:23:56;99952.44;;;7.93;100.00
31096;BME280;17749;51.962;8.560;2022-12-24T16:26:24;99958.69;;;7.92;100.00
31096;BME280;17749;51.962;8.560;2022-12-24T16:28:51;99961.53;;;7.86;100.00
31096;BME280;17749;51.962;8.560;2022-12-24T16:31:27;99960.84;;;7.79;100.00
31096;BME280;17749;51.962;8.560;2022-12-24T16:33:57;99959.25;;;7.74;100.00
31096;BME280;17749;51.962;8.560;2022-12-24T16:36:24;99965.56;;;7.69;100.00
31096;BME280;17749;51.962;8.560;2022-12-24T16:38:51;99969.22;;;7.65;100.00
31096;BME280;17749;51.962;8.560;2022-12-24T16:41:37;99968.44;;;7.62;100.00
31096;BME280;17749;51.962;8.560;2022-12-24T16:44:23;99975.66;;;7.57;100.00
31096;BME280;17749;51.962;8.560;2022-12-24T16:46:52;99976.69;;;7.51;100.00
31096;BME280;17749;51.962;8.560;2022-12-24T16:49:20;99982.09;;;7.48;100.00
31096;BME280;17749;51.962;8.560;2022-12-24T16:51:48;99981.34;;;7.44;100.00
31096;BME280;17749;51.962;8.560;2022-12-24T16:54:15;99982.38;;;7.39;100.00
31096;BME280;17749;51.962;8.560;2022-12-24T16:56:43;99983.34;;;7.36;100.00
31096;BME280;17749;51.962;8.560;2022-12-24T16:59:15;99990.53;;;7.31;100.00
31096;BME280;17749;51.962;8.560;2022-12-24T17:01:43;100000.41;;;7.26;100.00
31096;BME280;17749;51.962;8.560;2022-12-24T17:04:10;100001.38;;;7.22;100.00
31096;BME280;17749;51.962;8.560;2022-12-24T17:06:37;99997.09;;;7.18;100.00
31096;BME280;17749;51.962;8.560;2022-12-24T17:09:05;99998.09;;;7.14;100.00
31096;BME280;17749;51.962;8.560;2022-12-24T17:11:32;99997.34;;;7.09;100.00
31096;BME280;17749;51.962;8.560;2022-12-24T17:13:58;99994.78;;;7.06;100.00
31096;BME280;17749;51.962;8.560;2022-12-24T17:16:33;100003.72;;;7.01;100.00
31096;BME280;17749;51.962;8.560;2022-12-24T17:19:03;99996.81;;;6.96;100.00
31096;BME280;17749;51.962;8.560;2022-12-24T17:21:31;99993.38;;;6.92;100.00
31096;BME280;17749;51.962;8.560;2022-12-24T17:23:58;99998.78;;;6.89;100.00
31096;BME280;17749;51.962;8.560;2022-12-24T17:26:25;100007.69;;;6.85;100.00
31096;BME280;17749;51.962;8.560;2022-12-24T17:28:53;100014.88;;;6.80;100.00
31096;BME280;17749;51.962;8.560;2022-12-24T17:31:21;100009.66;;;6.77;100.00
31096;BME280;17749;51.962;8.560;2022-12-24T17:33:50;100013.28;;;6.73;100.00
31096;BME280;17749;51.962;8.560;2022-12-24T17:36:17;100011.66;;;6.69;100.00
31096;BME280;17749;51.962;8.560;2022-12-24T17:38:44;100022.31;;;6.66;100.00
31096;BME280;17749;51.962;8.560;2022-12-24T17:41:14;100026.84;;;6.61;100.00
31096;BME280;17749;51.962;8.560;2022-12-24T17:43:41;100032.19;;;6.57;100.00
31096;BME280;17749;51.962;8.560;2022-12-24T17:46:27;100026.97;;;6.54;100.00
31096;BME280;17749;51.962;8.560;2022-12-24T17:48:54;100024.41;;;6.51;100.00
31096;BME280;17749;51.962;8.560;2022-12-24T17:51:21;100026.22;;;6.49;100.00
31096;BME280;17749;51.962;8.560;2022-12-24T17:53:49;100017.47;;;6.47;100.00
31096;BME280;17749;51.962;8.560;2022-12-24T17:56:17;100029.88;;;6.45;100.00
31096;BME280;17749;51.962;8.560;2022-12-24T17:58:45;100029.97;;;6.42;100.00
31096;BME280;17749;51.962;8.560;2022-12-24T18:01:17;100024.72;;;6.39;100.00
31096;BME280;17749;51.962;8.560;2022-12-24T18:03:48;100030.94;;;6.36;100.00
31096;BME280;17749;51.962;8.560;2022-12-24T18:06:15;100037.19;;;6.34;100.00
31096;BME280;17749;51.962;8.560;2022-12-24T18:08:43;100035.50;;;6.31;100.00
31096;BME280;17749;51.962;8.560;2022-12-24T18:13:39;100037.41;;;6.25;100.00
31096;BME280;17749;51.962;8.560;2022-12-24T18:16:17;100037.47;;;6.22;100.00
31096;BME280;17749;51.962;8.560;2022-12-24T18:18:45;100041.97;;;6.18;100.00
31096;BME280;17749;51.962;8.560;2022-12-24T18:21:13;100032.41;;;6.12;100.00
31096;BME280;17749;51.962;8.560;2022-12-24T18:23:41;100044.03;;;6.05;100.00
31096;BME280;17749;51.962;8.560;2022-12-24T18:26:09;100050.28;;;6.01;100.00
31096;BME280;17749;51.962;8.560;2022-12-24T18:28:36;100035.44;;;5.96;100.00
31096;BME280;17749;51.962;8.560;2022-12-24T18:31:06;100050.44;;;5.92;100.00
31096;BME280;17749;51.962;8.560;2022-12-24T18:33:34;100052.34;;;5.87;100.00
31096;BME280;17749;51.962;8.560;2022-12-24T18:36:02;100055.94;;;5.83;100.00
31096;BME280;17749;51.962;8.560;2022-12-24T18:38:29;100058.66;;;5.80;100.00
31096;BME280;17749;51.962;8.560;2022-12-24T18:41:08;100050.78;;;5.77;100.00
31096;BME280;17749;51.962;8.560;2022-12-24T18:43:35;100053.47;;;5.74;100.00
31096;BME280;17749;51.962;8.560;2022-12-24T18:46:11;100048.25;;;5.70;100.00
31096;BME280;17749;51.962;8.560;2022-12-24T18:48:39;100045.69;;;5.67;100.00
31096;BME280;17749;51.962;8.560;2022-12-24T18:51:07;100040.47;;;5.64;100.00
31096;BME280;17749;51.962;8.560;2022-12-24T18:53:37;100033.47;;;5.63;100.00
31096;BME280;17749;51.962;8.560;2022-12-24T18:56:05;100031.75;;;5.61;100.00
31096;BME280;17749;51.962;8.560;2022-12-24T18:58:32;100030.06;;;5.58;100.00
31096;BME280;17749;51.962;8.560;2022-12-24T19:00:59;100037.13;;;5.56;100.00
31096;BME280;17749;51.962;8.560;2022-12-24T19:03:26;100038.00;;;5.55;100.00
31096;BME280;17749;51.962;8.560;2022-12-24T19:05:59;100040.66;;;5.55;100.00
31096;BME280;17749;51.962;8.560;2022-12-24T19:08:27;100047.75;;;5.53;100.00
31096;BME280;17749;51.962;8.560;2022-12-24T19:11:15;100048.72;;;5.49;100.00
31096;BME280;17749;51.962;8.560;2022-12-24T19:13:49;100052.28;;;5.46;100.00
31096;BME280;17749;51.962;8.560;2022-12-24T19:16:16;100047.06;;;5.45;100.00
31096;BME280;17749;51.962;8.560;2022-12-24T19:18:44;100050.63;;;5.41;100.00
31096;BME280;17749;51.962;8.560;2022-12-24T19:21:12;100062.19;;;5.35;100.00
31096;BME280;17749;51.962;8.560;2022-12-24T19:23:39;100058.78;;;5.30;100.00
31096;BME280;17749;51.962;8.560;2022-12-24T19:26:06;100065.00;;;5.27;100.00
31096;BME280;17749;51.962;8.560;2022-12-24T19:28:34;100069.41;;;5.27;100.00
31096;BME280;17749;51.962;8.560;2022-12-24T19:31:06;100074.69;;;5.25;100.00
31096;BME280;17749;51.962;8.560;2022-12-24T19:33:38;100074.75;;;5.22;100.00
31096;BME280;17749;51.962;8.560;2022-12-24T19:36:19;100078.34;;;5.18;100.00
31096;BME280;17749;51.962;8.560;2022-12-24T19:38:47;100076.75;;;5.11;100.00
31096;BME280;17749;51.962;8.560;2022-12-24T19:41:25;100082.03;;;5.08;100.00
31096;BME280;17749;51.962;8.560;2022-12-24T19:43:55;100082.16;;;5.03;100.00
31096;BME280;17749;51.962;8.560;2022-12-24T19:46:28;100075.22;;;4.98;100.00
31096;BME280;17749;51.962;8.560;2022-12-24T19:48:58;100079.66;;;4.94;100.00
31096;BME280;17749;51.962;8.560;2022-12-24T19:51:27;100084.97;;;4.93;100.00
31096;BME280;17749;51.962;8.560;2022-12-24T19:53:55;100088.53;;;4.90;100.00
31096;BME280;17749;51.962;8.560;2022-12-24T19:56:23;100093.00;;;4.87;100.00
31096;BME280;17749;51.962;8.560;2022-12-24T19:58:51;100083.34;;;4.84;100.00
31096;BME280;17749;51.962;8.560;2022-12-24T20:01:23;100092.19;;;4.83;100.00
31096;BME280;17749;51.962;8.560;2022-12-24T20:03:51;100086.09;;;4.79;100.00
31096;BME280;17749;51.962;8.560;2022-12-24T20:06:21;100095.81;;;4.76;100.00
31096;BME280;17749;51.962;8.560;2022-12-24T20:08:48;100088.88;;;4.69;100.00
31096;BME280;17749;51.962;8.560;2022-12-24T20:11:17;100081.94;;;4.63;100.00
31096;BME280;17749;51.962;8.560;2022-12-24T20:13:45;100090.78;;;4.60;100.00
31096;BME280;17749;51.962;8.560;2022-12-24T20:16:17;100082.97;;;4.53;100.00
31096;BME280;17749;51.962;8.560;2022-12-24T20:18:59;100081.25;;;4.50;100.00
31096;BME280;17749;51.962;8.560;2022-12-24T20:21:26;100087.50;;;4.46;100.00
31096;BME280;17749;51.962;8.560;2022-12-24T20:23:53;100088.41;;;4.44;100.00
31096;BME280;17749;51.962;8.560;2022-12-24T20:26:22;100083.19;;;4.39;100.00
31096;BME280;17749;51.962;8.560;2022-12-24T20:28:49;100079.81;;;4.32;100.00
31096;BME280;17749;51.962;8.560;2022-12-24T20:31:19;100082.44;;;4.32;100.00
31096;BME280;17749;51.962;8.560;2022-12-24T20:33:46;100079.81;;;4.29;100.00
31096;BME280;17749;51.962;8.560;2022-12-24T20:36:16;100071.13;;;4.24;100.00
31096;BME280;17749;51.962;8.560;2022-12-24T20:38:43;100074.69;;;4.20;100.00
31096;BME280;17749;51.962;8.560;2022-12-24T20:41:12;100077.38;;;4.17;100.00
31096;BME280;17749;51.962;8.560;2022-12-24T20:43:41;100075.63;;;4.16;100.00
31096;BME280;17749;51.962;8.560;2022-12-24T20:46:14;100075.66;;;4.14;100.00
31096;BME280;17749;51.962;8.560;2022-12-24T20:48:42;100081.00;;;4.10;100.00